createdAt,value
2022-09-16T00:00:49.033Z,48.58
2022-09-16T00:03:16.505Z,48.45
2022-09-16T00:05:46.356Z,48.43
2022-09-16T00:08:13.375Z,48.90
2022-09-16T00:10:40.824Z,48.96
2022-09-16T00:13:07.505Z,48.80
2022-09-16T00:15:34.105Z,48.85
2022-09-16T00:18:00.581Z,48.62
2022-09-16T00:20:28.354Z,48.92
2022-09-16T00:22:54.820Z,48.63
2022-09-16T00:25:21.315Z,48.93
2022-09-16T00:27:48.619Z,48.80
2022-09-16T00:30:15.433Z,49.34
2022-09-16T00:32:41.862Z,49.17
2022-09-16T00:35:08.400Z,49.28
2022-09-16T00:37:35.057Z,49.19
2022-09-16T00:40:01.674Z,49.57
2022-09-16T00:42:28.142Z,49.73
2022-09-16T00:44:56.370Z,49.58
2022-09-16T00:47:42.041Z,49.33
2022-09-16T00:50:10.698Z,49.16
2022-09-16T00:52:37.773Z,49.27
2022-09-16T00:55:07.128Z,49.24
2022-09-16T00:57:34.349Z,49.30
2022-09-16T01:00:01.469Z,49.25
2022-09-16T01:02:28.644Z,49.24
2022-09-16T01:05:04.579Z,49.13
2022-09-16T01:07:37.531Z,49.37
2022-09-16T01:10:04.201Z,49.51
2022-09-16T01:12:31.224Z,50.03
2022-09-16T01:14:58.423Z,50.31
2022-09-16T01:17:33.822Z,49.87
2022-09-16T01:20:06.032Z,50.04
2022-09-16T01:22:32.442Z,49.98
2022-09-16T01:25:19.171Z,50.00
2022-09-16T01:27:45.587Z,49.94
2022-09-16T01:30:15.119Z,50.15
2022-09-16T01:32:41.638Z,50.10
2022-09-16T01:35:11.609Z,49.67
2022-09-16T01:37:56.680Z,49.62
2022-09-16T01:40:26.262Z,49.63
2022-09-16T01:43:07.488Z,49.25
2022-09-16T01:45:43.811Z,49.37
2022-09-16T01:48:17.324Z,49.44
2022-09-16T01:50:51.245Z,49.96
2022-09-16T01:53:24.609Z,50.04
2022-09-16T01:55:54.450Z,49.92
2022-09-16T01:58:40.020Z,49.92
2022-09-16T02:01:13.501Z,49.53
2022-09-16T02:03:43.833Z,50.17
2022-09-16T02:06:14.959Z,50.92
2022-09-16T02:08:47.768Z,50.39
2022-09-16T02:11:15.798Z,50.34
2022-09-16T02:13:51.640Z,50.68
2022-09-16T02:16:25.861Z,50.91
2022-09-16T02:18:55.599Z,50.65
2022-09-16T02:21:24.271Z,51.28
2022-09-16T02:23:52.165Z,50.84
2022-09-16T02:26:21.520Z,50.64
2022-09-16T02:28:49.496Z,50.59
2022-09-16T02:31:17.632Z,50.41
2022-09-16T02:33:50.703Z,50.75
2022-09-16T02:36:20.122Z,50.51
2022-09-16T02:38:49.475Z,50.34
2022-09-16T02:41:16.081Z,50.61
2022-09-16T02:43:42.908Z,50.72
2022-09-16T02:46:09.449Z,50.77
2022-09-16T02:49:11.512Z,50.60
2022-09-16T02:51:56.770Z,50.99
2022-09-16T02:54:26.433Z,51.33
2022-09-16T02:56:54.263Z,51.02
2022-09-16T02:59:21.527Z,51.06
2022-09-16T03:01:48.129Z,51.06
2022-09-16T03:04:16.236Z,50.86
2022-09-16T03:06:43.057Z,50.79
2022-09-16T03:09:10.558Z,51.61
2022-09-16T03:11:55.850Z,51.68
2022-09-16T03:14:25.275Z,51.33
2022-09-16T03:16:54.749Z,51.53
2022-09-16T03:19:21.256Z,51.93
2022-09-16T03:22:05.148Z,51.28
2022-09-16T03:24:42.912Z,51.10
2022-09-16T03:27:35.792Z,51.34
2022-09-16T03:30:07.675Z,51.44
2022-09-16T03:32:39.880Z,50.68
2022-09-16T03:35:18.492Z,51.03
2022-09-16T03:37:45.645Z,51.20
2022-09-16T03:40:14.005Z,50.75
2022-09-16T03:42:41.384Z,50.66
2022-09-16T03:45:08.245Z,50.47
2022-09-16T03:47:34.859Z,50.21
2022-09-16T03:50:01.381Z,50.51
2022-09-16T03:52:27.892Z,50.83
2022-09-16T03:54:54.327Z,51.34
2022-09-16T03:57:20.719Z,50.94
2022-09-16T03:59:47.141Z,51.03
2022-09-16T04:02:13.605Z,51.51
2022-09-16T04:04:40.114Z,51.52
2022-09-16T04:07:06.561Z,51.34
2022-09-16T04:09:33.033Z,51.42
2022-09-16T04:11:59.592Z,51.43
2022-09-16T04:14:26.073Z,51.38
2022-09-16T04:16:52.492Z,51.62
2022-09-16T04:19:19.023Z,52.03
2022-09-16T04:21:45.440Z,51.43
2022-09-16T04:24:13.682Z,51.64
2022-09-16T04:26:40.765Z,52.02
2022-09-16T04:29:07.290Z,52.30
2022-09-16T04:31:33.966Z,52.23
2022-09-16T04:34:03.475Z,52.11
2022-09-16T04:36:29.984Z,51.97
2022-09-16T04:38:56.453Z,51.86
2022-09-16T04:41:24.475Z,52.34
2022-09-16T04:43:56.040Z,51.90
2022-09-16T04:46:22.880Z,52.12
2022-09-16T04:48:50.191Z,52.27
2022-09-16T04:51:17.492Z,52.25
2022-09-16T04:53:44.214Z,52.26
2022-09-16T04:56:18.251Z,52.28
2022-09-16T04:58:46.084Z,52.40
2022-09-16T05:01:13.981Z,52.31
2022-09-16T05:03:41.372Z,52.06
2022-09-16T05:06:20.781Z,52.30
2022-09-16T05:08:48.171Z,52.58
2022-09-16T05:11:16.174Z,52.18
2022-09-16T05:13:42.583Z,52.09
2022-09-16T05:16:10.287Z,51.95
2022-09-16T05:18:37.420Z,52.00
2022-09-16T05:21:04.813Z,51.66
2022-09-16T05:23:31.860Z,51.24
2022-09-16T05:26:05.888Z,50.74
2022-09-16T05:28:32.902Z,51.02
2022-09-16T05:31:11.618Z,50.92
2022-09-16T05:33:42.509Z,50.67
2022-09-16T05:36:13.523Z,50.79
2022-09-16T05:38:40.234Z,50.62
2022-09-16T05:41:07.071Z,50.91
2022-09-16T05:43:34.070Z,51.12
2022-09-16T05:46:01.282Z,50.91
2022-09-16T05:48:28.174Z,50.75
2022-09-16T05:50:56.579Z,50.96
2022-09-16T05:53:23.979Z,51.08
2022-09-16T05:55:56.701Z,51.16
2022-09-16T05:58:23.582Z,51.15
2022-09-16T06:00:50.127Z,51.10
2022-09-16T06:03:17.075Z,51.24
2022-09-16T06:05:45.779Z,50.92
2022-09-16T06:08:12.429Z,50.92
2022-09-16T06:10:40.350Z,50.99
2022-09-16T06:13:06.766Z,51.15
2022-09-16T06:15:34.143Z,51.02
2022-09-16T06:18:05.528Z,50.75
2022-09-16T06:20:32.845Z,50.71
2022-09-16T06:22:59.275Z,50.54
2022-09-16T06:25:25.783Z,50.63
2022-09-16T06:27:52.257Z,50.55
2022-09-16T06:30:18.747Z,50.46
2022-09-16T06:32:45.413Z,50.29
2022-09-16T06:35:11.935Z,50.33
2022-09-16T06:37:38.436Z,49.83
2022-09-16T06:40:05.085Z,49.87
2022-09-16T06:42:32.024Z,50.38
2022-09-16T06:45:04.324Z,50.30
2022-09-16T06:47:33.137Z,50.02
2022-09-16T06:50:00.344Z,49.92
2022-09-16T06:52:27.271Z,50.13
2022-09-16T06:54:54.167Z,49.63
2022-09-16T06:57:23.014Z,49.48
2022-09-16T06:59:49.892Z,49.92
2022-09-16T07:02:16.554Z,50.19
2022-09-16T07:04:43.059Z,49.95
2022-09-16T07:07:10.497Z,49.78
2022-09-16T07:09:37.453Z,49.29
2022-09-16T07:12:03.960Z,49.57
2022-09-16T07:14:32.528Z,49.10
2022-09-16T07:17:00.360Z,48.50
2022-09-16T07:19:27.001Z,47.36
2022-09-16T07:21:53.571Z,47.81
2022-09-16T07:24:20.005Z,47.19
2022-09-16T07:26:46.933Z,46.98
2022-09-16T07:29:15.489Z,47.19
2022-09-16T07:31:42.287Z,46.67
2022-09-16T07:34:10.080Z,46.92
2022-09-16T07:36:39.861Z,46.81
2022-09-16T07:39:06.683Z,46.15
2022-09-16T07:41:34.754Z,46.04
2022-09-16T07:44:01.537Z,46.55
2022-09-16T07:46:29.101Z,46.91
2022-09-16T07:48:55.909Z,46.11
2022-09-16T07:51:23.579Z,46.33
2022-09-16T07:53:53.778Z,46.58
2022-09-16T07:56:21.188Z,46.70
2022-09-16T07:58:47.703Z,46.62
2022-09-16T08:01:15.355Z,46.67
2022-09-16T08:03:42.518Z,46.13
2022-09-16T08:06:14.213Z,46.28
2022-09-16T08:08:41.137Z,45.72
2022-09-16T08:11:08.149Z,46.35
2022-09-16T08:13:35.937Z,46.25
2022-09-16T08:16:06.278Z,46.26
2022-09-16T08:18:32.902Z,46.26
2022-09-16T08:21:04.706Z,46.37
2022-09-16T08:23:32.514Z,46.06
2022-09-16T08:25:59.014Z,46.46
2022-09-16T08:28:27.964Z,46.24
2022-09-16T08:31:00.176Z,46.04
2022-09-16T08:33:27.089Z,45.34
2022-09-16T08:36:02.593Z,44.93
2022-09-16T08:38:29.539Z,45.08
2022-09-16T08:41:20.154Z,44.31
2022-09-16T08:44:05.365Z,44.46
2022-09-16T08:46:41.763Z,44.51
2022-09-16T08:49:31.869Z,43.82
2022-09-16T08:52:00.206Z,43.26
2022-09-16T08:54:30.279Z,42.96
2022-09-16T08:56:59.890Z,41.23
2022-09-16T08:59:28.595Z,39.92
2022-09-16T09:02:09.625Z,38.49
2022-09-16T09:04:36.701Z,37.87
2022-09-16T09:07:22.292Z,35.40
2022-09-16T09:10:05.882Z,34.38
2022-09-16T09:13:04.563Z,33.95
2022-09-16T09:15:53.697Z,34.33
2022-09-16T09:18:27.501Z,34.67
2022-09-16T09:21:04.809Z,34.18
2022-09-16T09:23:51.846Z,34.40
2022-09-16T09:26:22.588Z,35.15
2022-09-16T09:29:01.544Z,36.21
2022-09-16T09:31:34.352Z,36.47
2022-09-16T09:34:16.147Z,35.19
2022-09-16T09:37:03.875Z,34.86
2022-09-16T09:39:30.314Z,34.06
2022-09-16T09:42:05.931Z,32.79
2022-09-16T09:44:32.499Z,27.82
2022-09-16T09:47:02.040Z,26.56
2022-09-16T09:49:36.111Z,21.77
2022-09-16T09:52:08.083Z,19.00
2022-09-16T09:54:35.465Z,20.65
2022-09-16T09:57:05.033Z,21.85
2022-09-16T09:59:31.485Z,23.93
2022-09-16T10:01:58.655Z,24.67
2022-09-16T10:04:25.266Z,24.82
2022-09-16T10:06:53.810Z,25.89
2022-09-16T10:09:21.142Z,27.15
2022-09-16T10:11:49.108Z,27.28
2022-09-16T10:14:23.229Z,27.99
2022-09-16T10:16:51.172Z,27.28
2022-09-16T10:19:25.408Z,25.91
2022-09-16T10:22:11.806Z,25.55
2022-09-16T10:24:39.663Z,24.80
2022-09-16T10:27:21.454Z,24.09
2022-09-16T10:29:48.440Z,23.09
2022-09-16T10:32:19.675Z,23.13
2022-09-16T10:34:46.611Z,21.57
2022-09-16T10:37:13.501Z,19.22
2022-09-16T10:39:44.873Z,16.46
2022-09-16T10:42:19.704Z,13.33
2022-09-16T10:44:48.255Z,13.39
2022-09-16T10:47:41.264Z,12.36
2022-09-16T10:50:08.212Z,12.13
2022-09-16T10:52:42.621Z,11.43
2022-09-16T10:55:26.795Z,13.10
2022-09-16T10:57:54.700Z,14.62
2022-09-16T11:00:23.074Z,15.86
2022-09-16T11:02:55.812Z,17.85
2022-09-16T11:05:30.874Z,19.09
2022-09-16T11:08:23.753Z,20.01
2022-09-16T11:10:59.463Z,21.65
2022-09-16T11:13:33.447Z,22.00
2022-09-16T11:16:00.003Z,18.04
2022-09-16T11:18:49.277Z,16.99
2022-09-16T11:21:30.915Z,19.73
2022-09-16T11:24:03.734Z,18.63
2022-09-16T11:26:36.751Z,16.44
2022-09-16T11:29:26.773Z,16.71
2022-09-16T11:31:59.880Z,17.17
2022-09-16T11:34:31.285Z,15.29
2022-09-16T11:37:06.414Z,12.85
2022-09-16T11:39:51.298Z,11.11
2022-09-16T11:42:33.068Z,11.09
2022-09-16T11:45:35.178Z,9.84
2022-09-16T11:48:04.628Z,10.03
2022-09-16T11:50:37.447Z,9.68
2022-09-16T11:53:07.427Z,9.57
2022-09-16T11:55:49.064Z,10.48
2022-09-16T11:58:24.733Z,11.24
2022-09-16T12:00:56.673Z,13.40
2022-09-16T12:03:28.538Z,13.13
2022-09-16T12:06:03.624Z,13.17
2022-09-16T12:08:33.021Z,15.04
2022-09-16T12:11:05.145Z,16.85
2022-09-16T12:13:37.176Z,18.21
2022-09-16T12:16:13.626Z,15.81
2022-09-16T12:18:43.006Z,13.73
2022-09-16T12:21:28.644Z,12.77
2022-09-16T12:24:09.347Z,15.16
2022-09-16T12:26:45.350Z,17.80
2022-09-16T12:29:15.929Z,20.03
2022-09-16T12:31:51.522Z,22.50
2022-09-16T12:34:20.829Z,23.44
2022-09-16T12:36:57.833Z,24.34
2022-09-16T12:39:24.498Z,24.70
2022-09-16T12:42:06.430Z,25.69
2022-09-16T12:44:36.309Z,25.79
2022-09-16T12:47:25.103Z,26.91
2022-09-16T12:50:10.125Z,26.97
2022-09-16T12:52:57.236Z,27.27
2022-09-16T12:55:29.935Z,27.39
2022-09-16T12:58:15.160Z,27.53
2022-09-16T13:01:00.438Z,27.27
2022-09-16T13:03:28.221Z,26.67
2022-09-16T13:05:57.657Z,26.76
2022-09-16T13:08:26.603Z,26.91
2022-09-16T13:12:09.548Z,27.05
2022-09-16T13:13:55.543Z,27.50
2022-09-16T13:16:34.474Z,27.48
2022-09-16T13:19:19.188Z,28.20
2022-09-16T13:21:47.025Z,28.34
2022-09-16T13:24:17.491Z,29.42
2022-09-16T13:26:45.131Z,29.45
2022-09-16T13:29:30.377Z,30.02
2022-09-16T13:34:28.182Z,32.89
2022-09-16T13:36:54.684Z,34.81
2022-09-16T13:39:29.113Z,37.63
2022-09-16T13:41:55.878Z,39.13
2022-09-16T13:44:30.447Z,40.16
2022-09-16T13:47:09.135Z,39.57
2022-09-16T13:49:42.997Z,38.77
2022-09-16T13:52:15.772Z,40.26
2022-09-16T13:55:09.943Z,38.93
2022-09-16T13:57:56.177Z,38.72
2022-09-16T14:00:24.430Z,38.92
2022-09-16T14:02:53.831Z,37.69
2022-09-16T14:05:24.554Z,37.79
2022-09-16T14:07:55.475Z,36.22
2022-09-16T14:10:26.552Z,34.78
2022-09-16T14:13:02.156Z,34.85
2022-09-16T14:15:29.994Z,34.82
2022-09-16T14:17:59.500Z,34.73
2022-09-16T14:20:26.153Z,35.79
2022-09-16T14:23:02.863Z,35.85
2022-09-16T14:25:31.108Z,36.84
2022-09-16T14:28:26.620Z,36.21
2022-09-16T14:30:56.446Z,36.57
2022-09-16T14:33:43.647Z,36.38
2022-09-16T14:36:23.054Z,36.01
2022-09-16T14:39:00.234Z,36.25
2022-09-16T14:41:32.636Z,36.74
2022-09-16T14:44:07.134Z,36.68
2022-09-16T14:46:34.025Z,37.61
2022-09-16T14:49:00.501Z,38.22
2022-09-16T14:51:27.486Z,38.37
2022-09-16T14:54:11.678Z,39.12
2022-09-16T14:56:39.457Z,39.67
2022-09-16T14:59:06.647Z,39.33
2022-09-16T15:01:33.120Z,39.29
2022-09-16T15:04:18.562Z,39.21
2022-09-16T15:07:05.093Z,39.59
2022-09-16T15:09:47.932Z,39.02
2022-09-16T15:12:23.744Z,39.21
2022-09-16T15:14:50.553Z,38.46
2022-09-16T15:17:19.349Z,38.29
2022-09-16T15:19:49.414Z,37.71
2022-09-16T15:22:16.146Z,37.84
2022-09-16T15:24:42.714Z,38.95
2022-09-16T15:27:09.462Z,38.97
2022-09-16T15:29:46.571Z,39.07
2022-09-16T15:32:17.928Z,39.51
2022-09-16T15:34:44.531Z,39.50
2022-09-16T15:37:28.910Z,40.07
2022-09-16T15:39:55.529Z,40.58
2022-09-16T15:42:25.463Z,41.22
2022-09-16T15:44:59.822Z,41.73
2022-09-16T15:47:28.931Z,40.23
2022-09-16T15:50:16.813Z,38.62
2022-09-16T15:53:09.878Z,38.23
2022-09-16T15:55:39.129Z,37.86
2022-09-16T15:58:25.876Z,38.10
2022-09-16T16:00:55.619Z,38.42
2022-09-16T16:03:22.484Z,38.96
2022-09-16T16:05:53.128Z,38.69
2022-09-16T16:08:38.377Z,39.27
2022-09-16T16:11:09.298Z,39.28
2022-09-16T16:13:35.917Z,39.22
2022-09-16T16:16:04.413Z,39.46
2022-09-16T16:21:22.944Z,39.70
2022-09-16T16:23:49.437Z,40.32
2022-09-16T16:26:15.975Z,40.30
2022-09-16T16:28:42.539Z,40.64
2022-09-16T16:31:10.389Z,41.20
2022-09-16T16:33:38.024Z,41.02
2022-09-16T16:36:06.976Z,41.84
2022-09-16T16:38:33.396Z,41.79
2022-09-16T16:40:59.899Z,42.62
2022-09-16T16:43:26.387Z,43.18
2022-09-16T16:45:53.719Z,42.67
2022-09-16T16:48:20.241Z,43.64
2022-09-16T16:50:54.628Z,44.37
2022-09-16T16:53:21.183Z,45.24
2022-09-16T16:55:47.605Z,46.11
2022-09-16T16:58:14.019Z,45.17
2022-09-16T17:00:40.542Z,44.61
2022-09-16T17:03:07.045Z,44.38
2022-09-16T17:05:33.544Z,44.54
2022-09-16T17:08:00.466Z,44.49
2022-09-16T17:10:26.902Z,44.11
2022-09-16T17:12:53.467Z,44.11
2022-09-16T17:15:19.910Z,45.20
2022-09-16T17:17:46.396Z,44.60
2022-09-16T17:20:12.881Z,44.76
2022-09-16T17:22:39.776Z,44.56
2022-09-16T17:25:06.279Z,43.66
2022-09-16T17:27:32.684Z,43.79
2022-09-16T17:30:01.050Z,43.61
2022-09-16T17:32:27.702Z,44.26
2022-09-16T17:34:54.188Z,44.32
2022-09-16T17:37:20.711Z,44.78
2022-09-16T17:39:48.623Z,44.48
2022-09-16T17:42:15.038Z,44.42
2022-09-16T17:44:42.909Z,43.50
2022-09-16T17:47:10.310Z,43.03
2022-09-16T17:49:36.736Z,42.85
2022-09-16T17:52:03.323Z,43.27
2022-09-16T17:54:29.841Z,43.77
2022-09-16T17:56:56.338Z,43.47
2022-09-16T17:59:22.846Z,44.00
2022-09-16T18:01:49.407Z,44.38
2022-09-16T18:04:15.949Z,44.30
2022-09-16T18:06:43.495Z,44.19
2022-09-16T18:09:10.106Z,44.71
2022-09-16T18:11:37.744Z,44.79
2022-09-16T18:14:05.519Z,44.39
2022-09-16T18:16:32.849Z,44.88
2022-09-16T18:19:00.582Z,46.49
2022-09-16T18:21:27.815Z,47.08
2022-09-16T18:23:56.327Z,47.49
2022-09-16T18:26:25.621Z,47.69
2022-09-16T18:31:40.949Z,47.89
2022-09-16T18:34:07.798Z,47.88
2022-09-16T18:36:36.927Z,47.81
2022-09-16T18:39:04.176Z,47.00
2022-09-16T18:41:33.467Z,47.20
2022-09-16T18:44:01.210Z,47.53
2022-09-16T18:46:29.033Z,47.45
2022-09-16T18:48:56.061Z,47.75
2022-09-16T18:51:24.852Z,48.25
2022-09-16T18:53:52.915Z,47.93
2022-09-16T18:56:21.728Z,47.90
2022-09-16T18:59:09.929Z,48.34
2022-09-16T19:01:37.738Z,48.48
2022-09-16T19:04:05.783Z,48.74
2022-09-16T19:06:36.697Z,48.41
2022-09-16T19:09:05.480Z,47.83
2022-09-16T19:11:32.978Z,47.24
2022-09-16T19:13:59.650Z,46.79
2022-09-16T19:16:27.338Z,46.48
2022-09-16T19:18:55.566Z,47.49
2022-09-16T19:21:23.463Z,47.62
2022-09-16T19:23:58.636Z,47.25
2022-09-16T19:26:26.053Z,47.89
2022-09-16T19:28:52.684Z,47.65
2022-09-16T19:31:19.371Z,47.75
2022-09-16T19:33:46.415Z,47.69
2022-09-16T19:36:13.966Z,47.93
2022-09-16T19:38:40.896Z,47.60
2022-09-16T19:41:07.920Z,48.09
2022-09-16T19:43:34.432Z,48.00
2022-09-16T19:49:09.680Z,47.79
2022-09-16T19:51:36.179Z,47.43
2022-09-16T19:54:03.264Z,47.63
2022-09-16T19:56:31.618Z,48.06
2022-09-16T19:58:58.232Z,47.77
2022-09-16T20:01:26.271Z,47.93
2022-09-16T20:03:53.145Z,47.48
2022-09-16T20:06:21.084Z,47.90
2022-09-16T20:08:48.432Z,48.13
2022-09-16T20:11:19.040Z,47.87
2022-09-16T20:13:49.557Z,48.37
2022-09-16T20:16:16.552Z,48.60
2022-09-16T20:18:43.278Z,48.79
2022-09-16T20:21:11.013Z,48.94
2022-09-16T20:23:38.151Z,49.13
2022-09-16T20:26:06.323Z,49.34
2022-09-16T20:28:33.752Z,50.17
2022-09-16T20:31:00.814Z,49.96
2022-09-16T20:33:32.595Z,50.63
2022-09-16T20:36:10.580Z,51.16
2022-09-16T20:38:38.484Z,50.64
2022-09-16T20:41:09.260Z,51.14
2022-09-16T20:43:36.145Z,51.49
2022-09-16T20:46:08.089Z,51.79
2022-09-16T20:48:35.342Z,51.13
2022-09-16T20:51:06.792Z,50.91
2022-09-16T20:53:38.661Z,51.45
2022-09-16T20:56:06.859Z,51.44
2022-09-16T20:58:36.770Z,51.49
2022-09-16T21:01:04.426Z,51.51
2022-09-16T21:03:30.936Z,51.82
2022-09-16T21:06:20.207Z,51.92
2022-09-16T21:08:46.952Z,52.21
2022-09-16T21:11:19.689Z,52.19
2022-09-16T21:13:47.485Z,52.00
2022-09-16T21:16:15.696Z,52.07
2022-09-16T21:18:42.971Z,51.62
2022-09-16T21:21:14.118Z,52.22
2022-09-16T21:23:41.151Z,51.62
2022-09-16T21:26:12.483Z,52.08
2022-09-16T21:28:39.227Z,52.07
2022-09-16T21:31:07.340Z,51.97
2022-09-16T21:33:37.796Z,51.95
2022-09-16T21:36:05.208Z,52.53
2022-09-16T21:38:32.293Z,52.38
2022-09-16T21:41:05.916Z,52.21
2022-09-16T21:43:34.637Z,52.31
2022-09-16T21:46:02.701Z,52.20
2022-09-16T21:48:32.096Z,52.10
2022-09-16T21:51:03.096Z,51.97
2022-09-16T21:53:33.562Z,51.77
2022-09-16T21:56:04.288Z,51.69
2022-09-16T21:58:31.136Z,51.92
2022-09-16T22:01:18.077Z,51.92
2022-09-16T22:03:45.889Z,51.71
2022-09-16T22:06:13.635Z,51.84
2022-09-16T22:08:46.811Z,51.69
2022-09-16T22:11:16.092Z,52.11
2022-09-16T22:13:42.667Z,52.59
2022-09-16T22:16:13.105Z,52.85
2022-09-16T22:18:39.792Z,52.68
2022-09-16T22:21:08.823Z,52.44
2022-09-16T22:23:37.242Z,53.32
2022-09-16T22:26:05.189Z,52.79
2022-09-16T22:28:33.027Z,52.79
2022-09-16T22:31:06.876Z,52.79
2022-09-16T22:33:34.037Z,53.16
2022-09-16T22:36:08.011Z,52.46
2022-09-16T22:38:34.506Z,52.83
2022-09-16T22:41:01.609Z,53.29
2022-09-16T22:43:28.318Z,52.87
2022-09-16T22:46:01.775Z,52.98
2022-09-16T22:48:28.927Z,53.31
2022-09-16T22:50:58.957Z,53.14
2022-09-16T22:53:26.556Z,53.57
2022-09-16T22:56:00.512Z,53.45
2022-09-16T22:58:27.536Z,53.24
2022-09-16T23:01:01.854Z,53.30
2022-09-16T23:03:28.383Z,53.12
2022-09-16T23:05:55.950Z,52.81
2022-09-16T23:08:23.492Z,52.94
2022-09-16T23:10:50.314Z,53.46
2022-09-16T23:13:16.871Z,53.46
2022-09-16T23:15:43.526Z,53.27
2022-09-16T23:18:09.953Z,53.57
2022-09-16T23:20:36.445Z,53.77
2022-09-16T23:23:03.770Z,53.52
2022-09-16T23:25:30.228Z,53.41
2022-09-16T23:27:56.727Z,53.80
2022-09-16T23:30:23.341Z,53.40
2022-09-16T23:32:49.817Z,53.64
2022-09-16T23:35:17.280Z,53.61
2022-09-16T23:37:43.828Z,53.17
2022-09-16T23:40:10.554Z,53.38
2022-09-16T23:42:37.173Z,53.72
2022-09-16T23:45:04.287Z,53.55
2022-09-16T23:47:30.774Z,53.80
2022-09-16T23:49:57.691Z,52.90
2022-09-16T23:52:24.170Z,53.10
2022-09-16T23:54:51.131Z,52.81
2022-09-16T23:57:17.537Z,52.69
2022-09-16T23:59:43.954Z,52.53
